Main page
METAR-TAF:

METAR-TAF

Airports :

King Fahd International Airport

Dammam, Saudi Arabia

latitude: 26-28N, longitude: 049-47E, elevation: 22 m

Current weather observation

The report was made 38 minutes ago, at 06:00 UTC
Calm wind
Temperature 16°C
Humidity 63%
Pressure 1019 hPa
Visibility: 8000 m
Clear sky

METAR: OEDF 230600Z 00000KT 8000 SKC 16/09 Q1019 NOSIG

Time: 09:38 (06:38 UTC)

Forecast

The report was made 3 hours and 53 minutes ago, at 02:45 UTC
Forecast valid from 23 at 06 UTC to 24 at 12 UTC
Wind 3 kt from variable directions
Visibility 10 km or more
no clouds below 1500 m and no cumulonimbus
Becoming
from 23 at 10 UTC to 23 at 12 UTC
Wind 6 kt from the South/Southeast
Temporary
from 24 at 00 UTC to 24 at 05 UTC
Visibility: 5000 m
haze

TAF: OEDF 230245Z 2306/2412 VRB03KT CAVOK BECMG 2310/2312 15006KT TEMPO 2400/2405 5000 HZ NSC

Weather observations and forecasts of more than 4000 airports (METAR and TAF reports).

The available stations are represented by yellow and red dots on the map.

Hover mouse over dot to see the name of the station.

Then click to see weather observations and forecasts.

To change the map : click on the green buttons with a black cross to zoom in, on the green button with a dash to zoom out, or on the green arrows for adjacent maps.


METAR-TAF: